Atlanticbeach, North Carolina
Current Conditions -  °F | °C
As of 2:58 PM on Monday 26 Jan 2015 (Local Time) from KMRH Reporting Station
Clear Clear  
Wind Chill: 11°   Ceiling: Unl
Heat Index: 11°   Visibility: 10mi
Dew Point:   Wind: 7mph
Humidity: 80%   Direction: 310°NW
Pressure: 29.52"   Gusts: NA
Location:  34.6984°N, 76.7775°W
Report Text: KMRH 261958Z AUTO 31006KT 10SM CLR 11/08 A2952 RMK AO2 SLP998 T01110078 TSNO
Loading
Personal Weather Stations






























Interactive Weather Map New forecast layout! Learn more

10-Day Weather Forecast

Advertisements
Track Severe Weather on mobile